Bryant Creek (Missouri), Tecumseh (07058000)

StateMissouriCurrentGood (735 cfs)
RiverBryant CreekFlood - The river is flooding. Obstacles can be treacherous or deadly. The river should be avoided at this stage for casual trips and definitely for the inexperienced. Trips should be attempted only with protective gear and equipment.Flood(none)
Updated2019-10-14 2:15 (1 hour ago)High - The river is high and potentially dangerous, especially for the young and / or inexperienced. Normal stream obstacles are sometimes difficult to navigate. Extended distances can be attempted, but canoe travel may not be advisable.High(none)
Discharge735 cfs (median: 181 cfs)Good - Conditions are ideal for a canoe or kayak. Boats typically will drag on fewer than one-quarter of riffles, if at all, and portages are unnecessary or rare. Normal float lengths can be attempted without a problem.Good300
Height4.8 feetLow - River is low but can still be floated. Some riffles are okay but most come with significant dragging and might need a portage. Float lengths should be reduced to accommodate low flow, dragging, and portages.Low(none)
TrendFalling (falling over 24 hours)Poor - River is too low to float comfortably. Most or all riffles will drag or must be portaged and some obstacles (such as slick shelf rock) cause undue problems. Avoid the river at this stage for casual paddling trips.Poor(none)
USGSExternal icon USGS Site for Tecumseh (07058000)LocationExternal icon Google Maps

Trending Data

Plot Image
ObservationHeightDischargeMaximum
Discharge
Minimum
Discharge
Mean
Discharge
P05P10P20P25P50
(Median)
P75P80P90P95
2019-10-14 02:15 4.80 735 1520 (1960) 106 (1957) 239 123 127 140 145 181 233 252 451 662
2019-10-14 01:15 4.81 742 1520 (1960) 106 (1957) 239 123 127 140 145 181 233 252 451 662
2019-10-14 00:15 4.83 756 1520 (1960) 106 (1957) 239 123 127 140 145 181 233 252 451 662
2019-10-13 23:15 4.85 770 845 (1960) 106 (1957) 223 121 124 137 147 184 223 235 393 691
2019-10-13 22:15 4.86 777 845 (1960) 106 (1957) 223 121 124 137 147 184 223 235 393 691
2019-10-13 21:15 4.88 791 845 (1960) 106 (1957) 223 121 124 137 147 184 223 235 393 691
2019-10-13 20:15 4.90 805 845 (1960) 106 (1957) 223 121 124 137 147 184 223 235 393 691
2019-10-13 19:15 4.92 819 845 (1960) 106 (1957) 223 121 124 137 147 184 223 235 393 691
2019-10-13 18:15 4.94 834 845 (1960) 106 (1957) 223 121 124 137 147 184 223 235 393 691
2019-10-13 17:15 4.96 848 845 (1960) 106 (1957) 223 121 124 137 147 184 223 235 393 691
2019-10-13 16:15 4.98 863 845 (1960) 106 (1957) 223 121 124 137 147 184 223 235 393 691
2019-10-13 15:15 5.00 878 845 (1960) 106 (1957) 223 121 124 137 147 184 223 235 393 691
2019-10-13 14:15 5.03 901 845 (1960) 106 (1957) 223 121 124 137 147 184 223 235 393 691
2019-10-13 13:15 5.05 916 845 (1960) 106 (1957) 223 121 124 137 147 184 223 235 393 691
2019-10-13 12:15 5.08 939 845 (1960) 106 (1957) 223 121 124 137 147 184 223 235 393 691
2019-10-13 11:15 5.10 954 845 (1960) 106 (1957) 223 121 124 137 147 184 223 235 393 691
2019-10-13 10:15 5.12 969 845 (1960) 106 (1957) 223 121 124 137 147 184 223 235 393 691
2019-10-13 09:15 5.14 985 845 (1960) 106 (1957) 223 121 124 137 147 184 223 235 393 691
2019-10-13 08:15 5.16 1000 845 (1960) 106 (1957) 223 121 124 137 147 184 223 235 393 691
2019-10-13 07:15 5.18 1020 845 (1960) 106 (1957) 223 121 124 137 147 184 223 235 393 691
2019-10-13 06:15 5.21 1040 845 (1960) 106 (1957) 223 121 124 137 147 184 223 235 393 691
2019-10-13 05:15 5.23 1060 845 (1960) 106 (1957) 223 121 124 137 147 184 223 235 393 691
2019-10-13 04:15 5.26 1080 845 (1960) 106 (1957) 223 121 124 137 147 184 223 235 393 691
2019-10-13 03:15 5.30 1110 845 (1960) 106 (1957) 223 121 124 137 147 184 223 235 393 691
2019-10-13 02:15 5.32 1130 845 (1960) 106 (1957) 223 121 124 137 147 184 223 235 393 691
2019-10-13 01:15 5.36 1160 845 (1960) 106 (1957) 223 121 124 137 147 184 223 235 393 691
2019-10-13 00:15 5.39 1190 845 (1960) 106 (1957) 223 121 124 137 147 184 223 235 393 691
2019-10-12 23:15 5.42 1210 938 (2010) 106 (1957) 210 118 125 137 148 185 220 234 272 452
2019-10-12 22:15 5.46 1250 938 (2010) 106 (1957) 210 118 125 137 148 185 220 234 272 452
2019-10-12 21:15 5.51 1290 938 (2010) 106 (1957) 210 118 125 137 148 185 220 234 272 452
2019-10-12 20:15 5.55 1320 938 (2010) 106 (1957) 210 118 125 137 148 185 220 234 272 452
2019-10-12 19:15 5.59 1360 938 (2010) 106 (1957) 210 118 125 137 148 185 220 234 272 452
2019-10-12 18:15 5.62 1390 938 (2010) 106 (1957) 210 118 125 137 148 185 220 234 272 452
2019-10-12 17:15 5.67 1430 938 (2010) 106 (1957) 210 118 125 137 148 185 220 234 272 452
2019-10-12 16:15 5.72 1480 938 (2010) 106 (1957) 210 118 125 137 148 185 220 234 272 452
2019-10-12 15:15 5.78 1530 938 (2010) 106 (1957) 210 118 125 137 148 185 220 234 272 452
2019-10-12 14:15 5.83 1580 938 (2010) 106 (1957) 210 118 125 137 148 185 220 234 272 452
2019-10-12 13:15 5.88 1630 938 (2010) 106 (1957) 210 118 125 137 148 185 220 234 272 452
2019-10-12 12:15 5.94 1690 938 (2010) 106 (1957) 210 118 125 137 148 185 220 234 272 452
2019-10-12 11:15 6.01 1760 938 (2010) 106 (1957) 210 118 125 137 148 185 220 234 272 452
2019-10-12 10:15 6.07 1820 938 (2010) 106 (1957) 210 118 125 137 148 185 220 234 272 452
2019-10-12 09:15 6.14 1890 938 (2010) 106 (1957) 210 118 125 137 148 185 220 234 272 452
2019-10-12 08:15 6.22 1980 938 (2010) 106 (1957) 210 118 125 137 148 185 220 234 272 452
2019-10-12 07:15 6.30 2060 938 (2010) 106 (1957) 210 118 125 137 148 185 220 234 272 452
2019-10-12 06:15 6.40 2170 938 (2010) 106 (1957) 210 118 125 137 148 185 220 234 272 452
2019-10-12 05:15 6.50 2290 938 (2010) 106 (1957) 210 118 125 137 148 185 220 234 272 452
2019-10-12 04:15 6.63 2430 938 (2010) 106 (1957) 210 118 125 137 148 185 220 234 272 452
2019-10-12 03:15 6.77 2580 938 (2010) 106 (1957) 210 118 125 137 148 185 220 234 272 452
2019-10-12 02:15 6.91 2740 938 (2010) 106 (1957) 210 118 125 137 148 185 220 234 272 452
2019-10-12 01:15 7.09 2950 938 (2010) 106 (1957) 210 118 125 137 148 185 220 234 272 452
2019-10-12 00:15 7.30 3210 938 (2010) 106 (1957) 210 118 125 137 148 185 220 234 272 452
2019-10-11 23:15 7.58 3560 1360 (2010) 104 (1982) 212 113 125 136 147 183 212 235 275 399
2019-10-11 22:15 7.91 4000 1360 (2010) 104 (1982) 212 113 125 136 147 183 212 235 275 399
2019-10-11 21:15 8.31 4570 1360 (2010) 104 (1982) 212 113 125 136 147 183 212 235 275 399
2019-10-11 20:15 8.73 5200 1360 (2010) 104 (1982) 212 113 125 136 147 183 212 235 275 399
2019-10-11 19:15 9.02 5650 1360 (2010) 104 (1982) 212 113 125 136 147 183 212 235 275 399
2019-10-11 18:15 9.12 5810 1360 (2010) 104 (1982) 212 113 125 136 147 183 212 235 275 399
2019-10-11 17:15 8.99 5600 1360 (2010) 104 (1982) 212 113 125 136 147 183 212 235 275 399
2019-10-11 16:15 8.62 5030 1360 (2010) 104 (1982) 212 113 125 136 147 183 212 235 275 399
2019-10-11 15:15 7.79 3840 1360 (2010) 104 (1982) 212 113 125 136 147 183 212 235 275 399
2019-10-11 14:15 6.08 1830 1360 (2010) 104 (1982) 212 113 125 136 147 183 212 235 275 399
2019-10-11 13:15 5.52 1300 1360 (2010) 104 (1982) 212 113 125 136 147 183 212 235 275 399
2019-10-11 12:15 5.55 1320 1360 (2010) 104 (1982) 212 113 125 136 147 183 212 235 275 399
2019-10-11 11:15 5.62 1390 1360 (2010) 104 (1982) 212 113 125 136 147 183 212 235 275 399
2019-10-11 10:15 5.71 1470 1360 (2010) 104 (1982) 212 113 125 136 147 183 212 235 275 399
2019-10-11 09:15 5.61 1380 1360 (2010) 104 (1982) 212 113 125 136 147 183 212 235 275 399
2019-10-11 08:15 5.43 1220 1360 (2010) 104 (1982) 212 113 125 136 147 183 212 235 275 399
2019-10-11 07:15 5.12 969 1360 (2010) 104 (1982) 212 113 125 136 147 183 212 235 275 399
2019-10-11 06:15 4.55 575 1360 (2010) 104 (1982) 212 113 125 136 147 183 212 235 275 399
2019-10-11 05:15 4.25 408 1360 (2010) 104 (1982) 212 113 125 136 147 183 212 235 275 399
2019-10-11 04:15 4.16 364 1360 (2010) 104 (1982) 212 113 125 136 147 183 212 235 275 399
2019-10-11 03:15 4.10 335 1360 (2010) 104 (1982) 212 113 125 136 147 183 212 235 275 399
2019-10-11 02:15 4.00 291 1360 (2010) 104 (1982) 212 113 125 136 147 183 212 235 275 399
2019-10-11 01:15 3.97 278 1360 (2010) 104 (1982) 212 113 125 136 147 183 212 235 275 399
2019-10-11 00:15 3.96 274 1360 (2010) 104 (1982) 212 113 125 136 147 183 212 235 275 399
2019-10-10 23:15 3.96 274 3390 (2010) 104 (1982) 237 112 125 138 141 174 218 226 292 344
2019-10-10 22:15 3.97 278 3390 (2010) 104 (1982) 237 112 125 138 141 174 218 226 292 344
2019-10-10 21:15 3.97 278 3390 (2010) 104 (1982) 237 112 125 138 141 174 218 226 292 344
2019-10-10 20:15 3.92 258 3390 (2010) 104 (1982) 237 112 125 138 141 174 218 226 292 344
2019-10-10 19:15 3.91 253 3390 (2010) 104 (1982) 237 112 125 138 141 174 218 226 292 344
2019-10-10 18:15 3.91 253 3390 (2010) 104 (1982) 237 112 125 138 141 174 218 226 292 344
2019-10-10 17:15 3.91 253 3390 (2010) 104 (1982) 237 112 125 138 141 174 218 226 292 344
2019-10-10 16:15 3.92 258 3390 (2010) 104 (1982) 237 112 125 138 141 174 218 226 292 344
2019-10-10 15:15 3.92 258 3390 (2010) 104 (1982) 237 112 125 138 141 174 218 226 292 344
2019-10-10 14:15 3.93 262 3390 (2010) 104 (1982) 237 112 125 138 141 174 218 226 292 344
2019-10-10 13:15 3.93 262 3390 (2010) 104 (1982) 237 112 125 138 141 174 218 226 292 344
2019-10-10 12:15 3.93 262 3390 (2010) 104 (1982) 237 112 125 138 141 174 218 226 292 344
2019-10-10 11:15 3.93 262 3390 (2010) 104 (1982) 237 112 125 138 141 174 218 226 292 344
2019-10-10 10:15 3.93 262 3390 (2010) 104 (1982) 237 112 125 138 141 174 218 226 292 344
2019-10-10 09:15 3.93 262 3390 (2010) 104 (1982) 237 112 125 138 141 174 218 226 292 344
2019-10-10 08:15 3.93 262 3390 (2010) 104 (1982) 237 112 125 138 141 174 218 226 292 344
2019-10-10 07:15 3.93 262 3390 (2010) 104 (1982) 237 112 125 138 141 174 218 226 292 344
2019-10-10 06:15 3.94 266 3390 (2010) 104 (1982) 237 112 125 138 141 174 218 226 292 344
2019-10-10 05:15 3.94 266 3390 (2010) 104 (1982) 237 112 125 138 141 174 218 226 292 344
2019-10-10 04:15 3.94 266 3390 (2010) 104 (1982) 237 112 125 138 141 174 218 226 292 344
2019-10-10 03:15 3.95 270 3390 (2010) 104 (1982) 237 112 125 138 141 174 218 226 292 344
2019-10-10 02:15 3.95 270 3390 (2010) 104 (1982) 237 112 125 138 141 174 218 226 292 344
2019-10-10 01:15 3.95 270 3390 (2010) 104 (1982) 237 112 125 138 141 174 218 226 292 344
2019-10-10 00:15 3.95 270 3390 (2010) 104 (1982) 237 112 125 138 141 174 218 226 292 344
2019-10-09 23:15 3.96 274 4420 (2010) 104 (1982) 254 110 122 140 143 166 217 238 281 363
2019-10-09 22:15 3.96 274 4420 (2010) 104 (1982) 254 110 122 140 143 166 217 238 281 363
2019-10-09 21:15 3.96 274 4420 (2010) 104 (1982) 254 110 122 140 143 166 217 238 281 363
2019-10-09 20:15 3.97 278 4420 (2010) 104 (1982) 254 110 122 140 143 166 217 238 281 363
2019-10-09 19:15 3.97 278 4420 (2010) 104 (1982) 254 110 122 140 143 166 217 238 281 363
2019-10-09 18:15 3.97 278 4420 (2010) 104 (1982) 254 110 122 140 143 166 217 238 281 363
2019-10-09 17:15 3.98 282 4420 (2010) 104 (1982) 254 110 122 140 143 166 217 238 281 363
2019-10-09 16:15 3.98 282 4420 (2010) 104 (1982) 254 110 122 140 143 166 217 238 281 363
2019-10-09 15:15 3.99 287 4420 (2010) 104 (1982) 254 110 122 140 143 166 217 238 281 363
2019-10-09 14:15 3.99 287 4420 (2010) 104 (1982) 254 110 122 140 143 166 217 238 281 363
2019-10-09 13:15 3.99 287 4420 (2010) 104 (1982) 254 110 122 140 143 166 217 238 281 363
2019-10-09 12:15 4.00 291 4420 (2010) 104 (1982) 254 110 122 140 143 166 217 238 281 363
2019-10-09 11:15 4.01 295 4420 (2010) 104 (1982) 254 110 122 140 143 166 217 238 281 363
2019-10-09 10:15 4.01 295 4420 (2010) 104 (1982) 254 110 122 140 143 166 217 238 281 363
2019-10-09 09:15 4.01 295 4420 (2010) 104 (1982) 254 110 122 140 143 166 217 238 281 363
2019-10-09 08:15 4.01 295 4420 (2010) 104 (1982) 254 110 122 140 143 166 217 238 281 363
2019-10-09 07:15 4.02 300 4420 (2010) 104 (1982) 254 110 122 140 143 166 217 238 281 363
2019-10-09 06:15 4.02 300 4420 (2010) 104 (1982) 254 110 122 140 143 166 217 238 281 363
2019-10-09 05:15 4.03 304 4420 (2010) 104 (1982) 254 110 122 140 143 166 217 238 281 363
2019-10-09 04:15 4.03 304 4420 (2010) 104 (1982) 254 110 122 140 143 166 217 238 281 363
2019-10-09 03:15 4.04 308 4420 (2010) 104 (1982) 254 110 122 140 143 166 217 238 281 363
2019-10-09 02:15 4.04 308 4420 (2010) 104 (1982) 254 110 122 140 143 166 217 238 281 363
2019-10-09 01:15 4.05 313 4420 (2010) 104 (1982) 254 110 122 140 143 166 217 238 281 363
2019-10-09 00:15 4.06 317 4420 (2010) 104 (1982) 254 110 122 140 143 166 217 238 281 363
2019-10-08 23:15 4.06 317 634 (1960) 104 (1957) 196 112 124 133 143 167 214 223 302 431
2019-10-08 22:15 4.07 322 634 (1960) 104 (1957) 196 112 124 133 143 167 214 223 302 431
2019-10-08 21:15 4.07 322 634 (1960) 104 (1957) 196 112 124 133 143 167 214 223 302 431
2019-10-08 20:15 4.08 326 634 (1960) 104 (1957) 196 112 124 133 143 167 214 223 302 431
2019-10-08 19:15 4.09 331 634 (1960) 104 (1957) 196 112 124 133 143 167 214 223 302 431
2019-10-08 18:15 4.09 331 634 (1960) 104 (1957) 196 112 124 133 143 167 214 223 302 431
2019-10-08 17:15 4.10 335 634 (1960) 104 (1957) 196 112 124 133 143 167 214 223 302 431
2019-10-08 16:15 4.10 335 634 (1960) 104 (1957) 196 112 124 133 143 167 214 223 302 431
2019-10-08 15:15 4.11 340 634 (1960) 104 (1957) 196 112 124 133 143 167 214 223 302 431
2019-10-08 14:15 4.12 345 634 (1960) 104 (1957) 196 112 124 133 143 167 214 223 302 431
2019-10-08 13:15 4.12 345 634 (1960) 104 (1957) 196 112 124 133 143 167 214 223 302 431
2019-10-08 12:15 4.13 349 634 (1960) 104 (1957) 196 112 124 133 143 167 214 223 302 431
2019-10-08 11:15 4.14 354 634 (1960) 104 (1957) 196 112 124 133 143 167 214 223 302 431
2019-10-08 10:15 4.15 359 634 (1960) 104 (1957) 196 112 124 133 143 167 214 223 302 431
2019-10-08 09:15 4.16 364 634 (1960) 104 (1957) 196 112 124 133 143 167 214 223 302 431
2019-10-08 08:15 4.17 368 634 (1960) 104 (1957) 196 112 124 133 143 167 214 223 302 431
2019-10-08 07:15 4.18 373 634 (1960) 104 (1957) 196 112 124 133 143 167 214 223 302 431
2019-10-08 06:15 4.19 378 634 (1960) 104 (1957) 196 112 124 133 143 167 214 223 302 431
2019-10-08 05:15 4.20 383 634 (1960) 104 (1957) 196 112 124 133 143 167 214 223 302 431
2019-10-08 04:15 4.21 388 634 (1960) 104 (1957) 196 112 124 133 143 167 214 223 302 431
2019-10-08 03:15 4.23 398 634 (1960) 104 (1957) 196 112 124 133 143 167 214 223 302 431
2019-10-08 02:15 4.24 403 634 (1960) 104 (1957) 196 112 124 133 143 167 214 223 302 431
2019-10-08 01:15 4.25 408 634 (1960) 104 (1957) 196 112 124 133 143 167 214 223 302 431
2019-10-08 00:15 4.27 418 634 (1960) 104 (1957) 196 112 124 133 143 167 214 223 302 431
2019-10-07 23:15 4.28 423 869 (1999) 104 (1957) 206 113 125 134 142 170 214 228 328 437
2019-10-07 22:15 4.30 434 869 (1999) 104 (1957) 206 113 125 134 142 170 214 228 328 437
2019-10-07 21:15 4.31 439 869 (1999) 104 (1957) 206 113 125 134 142 170 214 228 328 437
2019-10-07 20:15 4.33 450 869 (1999) 104 (1957) 206 113 125 134 142 170 214 228 328 437
2019-10-07 19:15 4.34 455 869 (1999) 104 (1957) 206 113 125 134 142 170 214 228 328 437
2019-10-07 18:15 4.36 466 869 (1999) 104 (1957) 206 113 125 134 142 170 214 228 328 437
2019-10-07 17:15 4.37 471 869 (1999) 104 (1957) 206 113 125 134 142 170 214 228 328 437
2019-10-07 16:15 4.38 477 869 (1999) 104 (1957) 206 113 125 134 142 170 214 228 328 437
2019-10-07 15:15 4.40 488 869 (1999) 104 (1957) 206 113 125 134 142 170 214 228 328 437
2019-10-07 14:15 4.41 493 869 (1999) 104 (1957) 206 113 125 134 142 170 214 228 328 437
2019-10-07 13:15 4.42 499 869 (1999) 104 (1957) 206 113 125 134 142 170 214 228 328 437
2019-10-07 12:15 4.43 505 869 (1999) 104 (1957) 206 113 125 134 142 170 214 228 328 437
2019-10-07 11:15 4.45 516 869 (1999) 104 (1957) 206 113 125 134 142 170 214 228 328 437
2019-10-07 10:15 4.45 516 869 (1999) 104 (1957) 206 113 125 134 142 170 214 228 328 437
2019-10-07 09:15 4.45 516 869 (1999) 104 (1957) 206 113 125 134 142 170 214 228 328 437
2019-10-07 08:15 4.46 522 869 (1999) 104 (1957) 206 113 125 134 142 170 214 228 328 437
2019-10-07 07:15 4.46 522 869 (1999) 104 (1957) 206 113 125 134 142 170 214 228 328 437
2019-10-07 06:15 4.45 516 869 (1999) 104 (1957) 206 113 125 134 142 170 214 228 328 437
2019-10-07 05:15 4.45 516 869 (1999) 104 (1957) 206 113 125 134 142 170 214 228 328 437
2019-10-07 04:15 4.44 510 869 (1999) 104 (1957) 206 113 125 134 142 170 214 228 328 437
2019-10-07 03:15 4.43 505 869 (1999) 104 (1957) 206 113 125 134 142 170 214 228 328 437
2019-10-07 02:15 4.42 499 869 (1999) 104 (1957) 206 113 125 134 142 170 214 228 328 437
2019-10-07 01:15 4.41 493 869 (1999) 104 (1957) 206 113 125 134 142 170 214 228 328 437
2019-10-07 00:15 4.39 482 869 (1999) 104 (1957) 206 113 125 134 142 170 214 228 328 437

A total of 171 rows are displayed for years 1945 through 2018.

Trips for Bryant Creek (Missouri), Tecumseh (07058000)

DateStartEndDistanceConditionDischargeHeightFishingDetails
Click for details2014-05-04 Bell School MO 95 (B) Total trip distance: 9.6 miles5.0 Good 341 3.85 Fair RB
SMB
LSF
GSF
RB, SMB, LSF, GSF
Fillmore, Brian
Fillmore Rebecca
Fillmore, Brian; Fillmore Rebecca
Actually camped about five miles downstream of the MO 95 bridge.Actually camped about five miles downstream of the MO 95 bridge. USGS Gauge Data:
Tecumseh (07058000)
Discharge: 341
Height: 3.85
<b>USGS Gauge Data:</b></br />Tecumseh (07058000)<br />Discharge: 341<br />Height: 3.85
Source: FillmoreSource: Fillmore
Click for details2014-05-05 MO 95 (B) Sycamore Total trip distance: 9.6 miles4.6 Good 331 3.82 Fair RB
SMB
LMB
LSF
GSF
RB, SMB, LMB, LSF, GSF
Fillmore, Brian
Fillmore, Rebecca
Fillmore, Brian; Fillmore, Rebecca
Actually camped about five miles downstream of the MO 95 bridge.Actually camped about five miles downstream of the MO 95 bridge. USGS Gauge Data:
Tecumseh (07058000)
Discharge: 331
Height: 3.82
<b>USGS Gauge Data:</b></br />Tecumseh (07058000)<br />Discharge: 331<br />Height: 3.82
Source: FillmoreSource: Fillmore
Click for details2010-07-03 Sycamore Cook Total trip distance: 14.1 miles14.1 Good 309 3.86 None NoneNone Bowe, Michelle
Edmond, Brian
Van Someren, Tom
Bowe, Michelle; Edmond, Brian; Van Someren, Tom
No notes for this trip<i>No notes for this trip</i> USGS Gauge Data:
Tecumseh (07058000)
Discharge: 309
Height: 3.86
<b>USGS Gauge Data:</b></br />Tecumseh (07058000)<br />Discharge: 309<br />Height: 3.86
Source: EdmondSource: Edmond

A total of 3 rows are displayed.

Trip Summary for Bryant Creek (Missouri), Tecumseh (07058000)

Miles23.7
Trips2
People6
Dates3
Years2
Months2
Rows3
Sources2

Condition Descriptions

Fishing Conditions

Fish Species

Notes

Classic Trip List

The classic River Trips application is still available for use. It is updated with the new system using a data retrofit. It is no longer maintained. The original River Trips application is no longer updated (as of 1 Dec 2016) but can be checked for errors or for the condition of the data before it was converted to the new system.